RORK(METAR)
06/27 01:00
METAR RORK 261600Z AUTO 15021KT 8000 NSC 26/25 Q1006 RMK A2972=
戻る
トップページへ戻る
IMOC Co,.Ltd.